createdAt,value
2016-11-10T00:00:01.971Z,0
2016-11-10T00:01:02.586Z,0
2016-11-10T00:02:03.223Z,0
2016-11-10T00:03:03.828Z,0
2016-11-10T00:04:04.451Z,0
2016-11-10T00:05:05.059Z,0
2016-11-10T00:06:05.657Z,0
2016-11-10T00:07:06.306Z,0
2016-11-10T00:08:06.930Z,0
2016-11-10T00:09:07.561Z,0
2016-11-10T00:10:08.169Z,0
2016-11-10T00:11:08.774Z,0
2016-11-10T00:12:09.385Z,0
2016-11-10T00:13:09.996Z,0
2016-11-10T00:14:10.613Z,0
2016-11-10T00:15:11.235Z,0
2016-11-10T00:16:11.857Z,0
2016-11-10T00:17:12.488Z,0
2016-11-10T00:18:13.099Z,0
2016-11-10T00:19:13.718Z,0
2016-11-10T00:20:14.317Z,0
2016-11-10T00:21:14.924Z,0
2016-11-10T00:22:15.539Z,0
2016-11-10T00:23:16.181Z,0
2016-11-10T00:24:16.783Z,0
2016-11-10T00:25:17.391Z,0
2016-11-10T00:26:18.003Z,0
2016-11-10T00:27:18.639Z,0
2016-11-10T00:28:19.251Z,0
2016-11-10T00:29:19.868Z,0
2016-11-10T00:30:20.479Z,0
2016-11-10T00:31:21.096Z,0
2016-11-10T00:32:21.696Z,0
2016-11-10T00:33:22.417Z,0
2016-11-10T00:34:23.013Z,0
2016-11-10T00:35:23.615Z,0
2016-11-10T00:36:24.220Z,0
2016-11-10T00:37:24.833Z,0
2016-11-10T00:38:25.444Z,0
2016-11-10T00:39:26.074Z,0
2016-11-10T00:40:26.689Z,0
2016-11-10T00:41:27.318Z,0
2016-11-10T00:42:27.905Z,0
2016-11-10T00:43:28.514Z,0
2016-11-10T00:44:29.127Z,0
2016-11-10T00:45:29.730Z,0
2016-11-10T00:46:30.337Z,0
2016-11-10T00:47:30.947Z,0
2016-11-10T00:48:31.568Z,0
2016-11-10T00:49:32.226Z,0
2016-11-10T00:50:32.835Z,0
2016-11-10T00:51:33.536Z,0
2016-11-10T00:52:34.147Z,0
2016-11-10T00:53:34.810Z,0
2016-11-10T00:54:35.432Z,0
2016-11-10T00:55:36.031Z,0
2016-11-10T00:56:36.639Z,0
2016-11-10T00:57:37.257Z,0
2016-11-10T00:58:37.898Z,0
2016-11-10T00:59:38.504Z,0
2016-11-10T01:00:39.160Z,0
2016-11-10T01:01:39.762Z,0
2016-11-10T01:02:40.368Z,0
2016-11-10T01:03:40.988Z,0
2016-11-10T01:04:41.610Z,0
2016-11-10T01:05:42.219Z,0
2016-11-10T01:06:42.834Z,0
2016-11-10T01:07:43.436Z,0
2016-11-10T01:08:44.053Z,0
2016-11-10T01:09:44.667Z,0
2016-11-10T01:10:45.280Z,0
2016-11-10T01:11:45.893Z,0
2016-11-10T01:12:46.501Z,0
2016-11-10T01:13:47.108Z,0
2016-11-10T01:14:47.716Z,0
2016-11-10T01:15:48.332Z,0
2016-11-10T01:16:48.966Z,0
2016-11-10T01:17:49.581Z,0
2016-11-10T01:18:50.189Z,0
2016-11-10T01:19:50.803Z,0
2016-11-10T01:20:51.413Z,0
2016-11-10T01:21:52.035Z,0
2016-11-10T01:22:52.648Z,0
2016-11-10T01:23:53.275Z,0
2016-11-10T01:24:53.875Z,0
2016-11-10T01:25:54.477Z,0
2016-11-10T01:26:55.084Z,0
2016-11-10T01:27:55.697Z,0
2016-11-10T01:28:56.318Z,0
2016-11-10T01:29:56.919Z,0
2016-11-10T01:30:57.548Z,0
2016-11-10T01:31:58.159Z,0
2016-11-10T01:32:58.765Z,0
2016-11-10T01:33:59.378Z,0
2016-11-10T01:34:59.983Z,0
2016-11-10T01:36:00.600Z,0
2016-11-10T01:37:01.205Z,0
2016-11-10T01:38:01.838Z,0
2016-11-10T01:39:02.473Z,0
2016-11-10T01:40:03.067Z,0
2016-11-10T01:41:03.675Z,0
2016-11-10T01:42:04.288Z,0
2016-11-10T01:43:04.925Z,0
2016-11-10T01:44:05.524Z,0
2016-11-10T01:45:06.141Z,0
2016-11-10T01:46:06.748Z,0
2016-11-10T01:47:07.353Z,0
2016-11-10T01:48:07.970Z,0
2016-11-10T01:49:08.576Z,0
2016-11-10T01:50:09.183Z,0
2016-11-10T01:51:09.789Z,0
2016-11-10T01:52:10.410Z,0
2016-11-10T01:53:11.084Z,0
2016-11-10T01:54:11.707Z,0
2016-11-10T01:55:12.314Z,0
2016-11-10T01:56:12.941Z,0
2016-11-10T01:57:13.559Z,0
2016-11-10T01:58:14.171Z,0
2016-11-10T01:59:14.777Z,0
2016-11-10T02:00:15.390Z,0
2016-11-10T02:01:15.993Z,0
2016-11-10T02:02:16.603Z,0
2016-11-10T02:03:17.209Z,0
2016-11-10T02:04:17.837Z,0
2016-11-10T02:05:18.439Z,0
2016-11-10T02:06:19.056Z,0
2016-11-10T02:07:19.672Z,0
2016-11-10T02:08:20.301Z,0
2016-11-10T02:09:20.891Z,0
2016-11-10T02:10:21.501Z,0
2016-11-10T02:11:22.120Z,0
2016-11-10T02:12:22.730Z,0
2016-11-10T02:13:23.332Z,0
2016-11-10T02:14:23.939Z,0
2016-11-10T02:15:24.577Z,0
2016-11-10T02:16:25.185Z,0
2016-11-10T02:17:25.811Z,0
2016-11-10T02:18:26.429Z,0
2016-11-10T02:19:27.173Z,0
2016-11-10T02:20:27.787Z,0
2016-11-10T02:21:28.418Z,0
2016-11-10T02:22:29.036Z,0
2016-11-10T02:23:29.650Z,0
2016-11-10T02:24:30.257Z,0
2016-11-10T02:25:30.891Z,0
2016-11-10T02:26:31.524Z,0
2016-11-10T02:27:32.141Z,0
2016-11-10T02:28:32.755Z,0
2016-11-10T02:29:33.376Z,0
2016-11-10T02:30:33.988Z,0
2016-11-10T02:31:34.609Z,0
2016-11-10T02:32:35.229Z,0
2016-11-10T02:33:35.929Z,0
2016-11-10T02:34:36.584Z,0
2016-11-10T02:35:37.203Z,0
2016-11-10T02:36:37.814Z,0
2016-11-10T02:37:38.452Z,0
2016-11-10T02:38:39.072Z,0
2016-11-10T02:39:39.726Z,0
2016-11-10T02:40:40.338Z,0
2016-11-10T02:41:40.953Z,0
2016-11-10T02:42:41.568Z,0
2016-11-10T02:43:42.176Z,0
2016-11-10T02:44:42.794Z,0
2016-11-10T02:45:43.415Z,0
2016-11-10T02:46:44.036Z,0
2016-11-10T02:47:44.649Z,0
2016-11-10T02:48:45.277Z,0
2016-11-10T02:49:45.898Z,0
2016-11-10T02:50:46.511Z,0
2016-11-10T02:51:47.119Z,0
2016-11-10T02:52:47.747Z,0
2016-11-10T02:53:48.364Z,0
2016-11-10T02:54:48.970Z,0
2016-11-10T02:55:49.620Z,0
2016-11-10T02:56:50.241Z,0
2016-11-10T02:57:50.852Z,0
2016-11-10T02:58:51.469Z,0
2016-11-10T02:59:52.170Z,0
2016-11-10T03:00:52.775Z,0
2016-11-10T03:01:53.383Z,0
2016-11-10T03:02:53.993Z,0
2016-11-10T03:03:54.602Z,0
2016-11-10T03:04:55.206Z,0
2016-11-10T03:05:55.816Z,0
2016-11-10T03:06:56.443Z,0
2016-11-10T03:07:57.033Z,0
2016-11-10T03:08:57.647Z,0
2016-11-10T03:09:58.258Z,0
2016-11-10T03:10:58.867Z,0
2016-11-10T03:11:59.476Z,0
2016-11-10T03:13:00.078Z,0
2016-11-10T03:14:00.677Z,0
2016-11-10T03:15:01.278Z,0
2016-11-10T03:16:01.893Z,0
2016-11-10T03:17:02.517Z,0
2016-11-10T03:18:03.115Z,0
2016-11-10T03:19:03.720Z,0
2016-11-10T03:20:04.341Z,0
2016-11-10T03:21:04.954Z,0
2016-11-10T03:22:05.563Z,0
2016-11-10T03:23:06.193Z,0
2016-11-10T03:24:06.813Z,0
2016-11-10T03:25:07.432Z,0
2016-11-10T03:26:08.042Z,0
2016-11-10T03:27:08.652Z,0
2016-11-10T03:28:09.270Z,0
2016-11-10T03:29:09.886Z,0
2016-11-10T03:30:10.498Z,0
2016-11-10T03:31:11.120Z,0
2016-11-10T03:32:11.747Z,0
2016-11-10T03:33:12.381Z,0
2016-11-10T03:34:13.029Z,0
2016-11-10T03:35:13.640Z,0
2016-11-10T03:36:14.266Z,0
2016-11-10T03:37:14.869Z,0
2016-11-10T03:38:15.487Z,0
2016-11-10T03:39:16.097Z,0
2016-11-10T03:40:16.727Z,0
2016-11-10T03:41:17.341Z,0
2016-11-10T03:42:17.962Z,0
2016-11-10T03:43:18.556Z,0
2016-11-10T03:44:19.165Z,0
2016-11-10T03:45:19.786Z,0
2016-11-10T03:46:20.414Z,0
2016-11-10T03:47:21.024Z,0
2016-11-10T03:48:21.712Z,0
2016-11-10T03:49:22.334Z,0
2016-11-10T03:50:22.940Z,0
2016-11-10T03:51:23.564Z,0
2016-11-10T03:52:24.202Z,0
2016-11-10T03:53:24.820Z,0
2016-11-10T03:54:25.429Z,0
2016-11-10T03:55:26.042Z,0
2016-11-10T03:56:26.665Z,0
2016-11-10T03:57:27.283Z,0
2016-11-10T03:58:27.885Z,0
2016-11-10T03:59:28.488Z,0
2016-11-10T04:00:29.140Z,0
2016-11-10T04:01:29.787Z,0
2016-11-10T04:02:30.480Z,0
2016-11-10T04:03:31.085Z,0
2016-11-10T04:04:31.747Z,0
2016-11-10T04:05:32.362Z,0
2016-11-10T04:06:33.001Z,0
2016-11-10T04:07:33.652Z,0
2016-11-10T04:08:34.253Z,0
2016-11-10T04:09:34.861Z,0
2016-11-10T04:10:35.483Z,0
2016-11-10T04:11:36.105Z,0
2016-11-10T04:12:36.732Z,0
2016-11-10T04:13:37.349Z,0
2016-11-10T04:14:37.973Z,0
2016-11-10T04:15:38.592Z,0
2016-11-10T04:16:39.201Z,0
2016-11-10T04:17:39.813Z,0
2016-11-10T04:18:40.405Z,0
2016-11-10T04:19:41.011Z,0
2016-11-10T04:20:41.637Z,0
2016-11-10T04:21:42.217Z,0
2016-11-10T04:22:42.833Z,0
2016-11-10T04:23:43.487Z,0
2016-11-10T04:24:44.074Z,0
2016-11-10T04:25:44.713Z,0
2016-11-10T04:26:45.326Z,0
2016-11-10T04:27:45.939Z,0
2016-11-10T04:28:46.553Z,0
2016-11-10T04:29:47.163Z,0
2016-11-10T04:30:47.871Z,0
2016-11-10T04:31:48.521Z,0
2016-11-10T04:32:49.131Z,0
2016-11-10T04:33:49.735Z,0
2016-11-10T04:34:50.351Z,0
2016-11-10T04:35:50.980Z,0
2016-11-10T04:36:51.601Z,0
2016-11-10T04:37:52.236Z,0
2016-11-10T04:38:52.830Z,0
2016-11-10T04:39:53.441Z,0
2016-11-10T04:40:54.063Z,0
2016-11-10T04:41:54.676Z,0
2016-11-10T04:42:55.310Z,0
2016-11-10T04:43:55.923Z,0
2016-11-10T04:44:56.549Z,0
2016-11-10T04:45:57.166Z,0
2016-11-10T04:46:57.769Z,0
2016-11-10T04:47:58.415Z,0
2016-11-10T04:48:58.989Z,0
2016-11-10T04:49:59.633Z,0
2016-11-10T04:51:00.244Z,0
2016-11-10T04:52:00.851Z,0
2016-11-10T04:53:01.504Z,0
2016-11-10T04:54:02.109Z,0
2016-11-10T04:55:02.726Z,0
2016-11-10T04:56:03.336Z,0
2016-11-10T04:57:03.948Z,0
2016-11-10T04:58:04.556Z,0
2016-11-10T04:59:05.176Z,0
2016-11-10T05:00:06.010Z,0
2016-11-10T05:01:06.639Z,0
2016-11-10T05:02:07.304Z,0
2016-11-10T05:03:07.971Z,0
2016-11-10T05:04:08.598Z,0
2016-11-10T05:05:09.201Z,0
2016-11-10T05:06:09.845Z,0
2016-11-10T05:07:10.454Z,0
2016-11-10T05:08:11.070Z,0
2016-11-10T05:09:11.694Z,0
2016-11-10T05:10:12.310Z,0
2016-11-10T05:11:12.940Z,0
2016-11-10T05:12:13.560Z,0
2016-11-10T05:13:14.180Z,0
2016-11-10T05:14:14.802Z,0
2016-11-10T05:15:15.484Z,0
2016-11-10T05:16:16.099Z,0
2016-11-10T05:17:16.710Z,0
2016-11-10T05:18:17.325Z,0
2016-11-10T05:19:17.961Z,0
2016-11-10T05:20:18.571Z,0
2016-11-10T05:21:19.185Z,0
2016-11-10T05:22:19.787Z,0
2016-11-10T05:23:20.402Z,0
2016-11-10T05:24:21.003Z,0
2016-11-10T05:25:21.625Z,0
2016-11-10T05:26:22.253Z,0
2016-11-10T05:27:22.874Z,0
2016-11-10T05:28:23.515Z,0
2016-11-10T05:29:24.137Z,0
2016-11-10T05:30:24.755Z,0
2016-11-10T05:31:25.374Z,0
2016-11-10T05:32:25.982Z,0
2016-11-10T05:33:26.670Z,0
2016-11-10T05:34:27.283Z,0
2016-11-10T05:35:27.902Z,0
2016-11-10T05:36:28.521Z,0
2016-11-10T05:37:29.140Z,0
2016-11-10T05:38:29.746Z,0
2016-11-10T05:39:30.344Z,0
2016-11-10T05:40:30.950Z,0
2016-11-10T05:41:31.569Z,0
2016-11-10T05:42:32.194Z,0
2016-11-10T05:43:32.829Z,0
2016-11-10T05:44:33.496Z,0
2016-11-10T05:45:34.073Z,0
2016-11-10T05:46:34.704Z,0
2016-11-10T05:47:35.317Z,0
2016-11-10T05:48:35.936Z,0
2016-11-10T05:49:36.552Z,0
2016-11-10T05:50:37.157Z,0
2016-11-10T05:51:37.813Z,0
2016-11-10T05:52:38.424Z,0
2016-11-10T05:53:39.031Z,0
2016-11-10T05:54:39.654Z,0
2016-11-10T05:55:40.263Z,0
2016-11-10T05:56:40.884Z,0
2016-11-10T05:57:41.624Z,0
2016-11-10T05:58:42.259Z,0
2016-11-10T05:59:42.840Z,0
2016-11-10T06:00:43.516Z,0
2016-11-10T06:01:44.143Z,0
2016-11-10T06:02:44.763Z,0
2016-11-10T06:03:45.370Z,0
2016-11-10T06:04:45.983Z,0
2016-11-10T06:05:46.594Z,0
2016-11-10T06:06:47.215Z,0
2016-11-10T06:07:47.838Z,0
2016-11-10T06:08:48.491Z,0
2016-11-10T06:09:49.123Z,0
2016-11-10T06:10:49.723Z,0
2016-11-10T06:11:50.335Z,0
2016-11-10T06:12:50.977Z,0
2016-11-10T06:13:51.575Z,0
2016-11-10T06:14:52.208Z,0
2016-11-10T06:15:52.818Z,0
2016-11-10T06:16:53.452Z,0
2016-11-10T06:17:54.054Z,0
2016-11-10T06:18:54.667Z,0
2016-11-10T06:19:55.283Z,0
2016-11-10T06:20:55.897Z,0
2016-11-10T06:21:56.520Z,0
2016-11-10T06:22:57.125Z,0
2016-11-10T06:23:57.728Z,0
2016-11-10T06:24:58.349Z,0
2016-11-10T06:25:58.979Z,0
2016-11-10T06:26:59.578Z,0
2016-11-10T06:28:00.199Z,0
2016-11-10T06:29:00.810Z,0
2016-11-10T06:30:01.423Z,0
2016-11-10T06:31:02.024Z,0
2016-11-10T06:32:02.639Z,0
2016-11-10T06:33:03.280Z,0
2016-11-10T06:34:03.883Z,0
2016-11-10T06:35:04.508Z,0
2016-11-10T06:36:05.116Z,0
2016-11-10T06:37:05.717Z,0
2016-11-10T06:38:06.331Z,0
2016-11-10T06:39:06.944Z,0
2016-11-10T06:40:07.564Z,0
2016-11-10T06:41:08.171Z,0
2016-11-10T06:42:08.785Z,0
2016-11-10T06:43:09.412Z,0
2016-11-10T06:44:10.148Z,0
2016-11-10T06:45:10.752Z,0
2016-11-10T06:46:11.453Z,0
2016-11-10T06:47:12.073Z,0
2016-11-10T06:48:12.706Z,0
2016-11-10T06:49:13.327Z,0
2016-11-10T06:50:13.947Z,0
2016-11-10T06:51:14.585Z,0
2016-11-10T06:52:15.206Z,0
2016-11-10T06:53:15.818Z,0
2016-11-10T06:54:16.457Z,0
2016-11-10T06:55:17.070Z,0
2016-11-10T06:56:17.686Z,0
2016-11-10T06:57:18.296Z,0
2016-11-10T06:58:18.907Z,0
2016-11-10T06:59:19.517Z,0
2016-11-10T07:00:20.132Z,0
2016-11-10T07:01:20.732Z,0
2016-11-10T07:02:21.374Z,0
2016-11-10T07:03:22.503Z,0
2016-11-10T07:04:22.732Z,0
2016-11-10T07:05:23.338Z,5
2016-11-10T07:06:24.011Z,5
2016-11-10T07:07:24.618Z,5
2016-11-10T07:08:25.371Z,5
2016-11-10T07:09:26.038Z,5
2016-11-10T07:10:26.661Z,5
2016-11-10T07:11:27.287Z,5
2016-11-10T07:12:27.929Z,5
2016-11-10T07:13:28.539Z,5
2016-11-10T07:14:29.160Z,5
2016-11-10T07:15:29.812Z,5
2016-11-10T07:16:30.468Z,5
2016-11-10T07:17:31.140Z,5
2016-11-10T07:18:31.752Z,5
2016-11-10T07:19:32.372Z,10
2016-11-10T07:20:32.994Z,5
2016-11-10T07:21:33.596Z,10
2016-11-10T07:22:34.218Z,5
2016-11-10T07:23:34.822Z,10
2016-11-10T07:24:35.430Z,10
2016-11-10T07:25:36.040Z,10
2016-11-10T07:26:36.658Z,10
2016-11-10T07:27:37.258Z,10
2016-11-10T07:28:37.901Z,10
2016-11-10T07:29:38.516Z,10
2016-11-10T07:30:39.131Z,10
2016-11-10T07:31:39.741Z,10
2016-11-10T07:32:40.347Z,10
2016-11-10T07:33:40.968Z,10
2016-11-10T07:34:41.571Z,10
2016-11-10T07:35:42.179Z,10
2016-11-10T07:36:42.784Z,10
2016-11-10T07:37:43.402Z,10
2016-11-10T07:38:44.048Z,10
2016-11-10T07:39:44.660Z,10
2016-11-10T07:40:45.263Z,10
2016-11-10T07:41:45.950Z,10
2016-11-10T07:42:46.642Z,15
2016-11-10T07:43:47.373Z,15
2016-11-10T07:44:47.986Z,15
2016-11-10T07:45:48.617Z,15
2016-11-10T07:46:49.233Z,20
2016-11-10T07:47:49.862Z,20
2016-11-10T07:48:50.486Z,20
2016-11-10T07:49:51.141Z,20
2016-11-10T07:50:51.772Z,20
2016-11-10T07:51:52.403Z,25
2016-11-10T07:52:53.019Z,25
2016-11-10T07:53:53.639Z,30
2016-11-10T07:54:58.774Z,30
2016-11-10T07:55:58.203Z,25
2016-11-10T07:56:58.817Z,25
2016-11-10T07:57:59.427Z,25
2016-11-10T07:59:00.044Z,25
2016-11-10T08:00:00.651Z,25
2016-11-10T08:01:01.261Z,30
2016-11-10T08:02:01.906Z,30
2016-11-10T08:03:02.505Z,30
2016-11-10T08:04:03.122Z,30
2016-11-10T08:05:03.762Z,35
2016-11-10T08:06:04.436Z,35
2016-11-10T08:07:05.046Z,40
2016-11-10T08:08:05.997Z,40
2016-11-10T08:09:06.525Z,35
2016-11-10T08:10:07.133Z,35
2016-11-10T08:11:07.749Z,35
2016-11-10T08:12:08.362Z,35
2016-11-10T08:13:08.977Z,40
2016-11-10T08:14:09.591Z,40
2016-11-10T08:15:10.203Z,45
2016-11-10T08:16:10.823Z,45
2016-11-10T08:17:11.431Z,45
2016-11-10T08:18:12.049Z,45
2016-11-10T08:19:12.660Z,35
2016-11-10T08:20:13.269Z,40
2016-11-10T08:21:13.881Z,35
2016-11-10T08:22:14.498Z,40
2016-11-10T08:23:15.169Z,35
2016-11-10T08:24:15.783Z,35
2016-11-10T08:25:16.408Z,35
2016-11-10T08:26:17.084Z,40
2016-11-10T08:27:17.749Z,35
2016-11-10T08:28:18.479Z,35
2016-11-10T08:29:19.105Z,40
2016-11-10T08:30:19.720Z,45
2016-11-10T08:31:20.334Z,50
2016-11-10T08:32:20.960Z,60
2016-11-10T08:33:21.577Z,70
2016-11-10T08:34:22.190Z,75
2016-11-10T08:35:22.801Z,70
2016-11-10T08:36:23.438Z,70
2016-11-10T08:37:24.045Z,65
2016-11-10T08:38:24.656Z,65
2016-11-10T08:39:25.267Z,65
2016-11-10T08:40:25.884Z,65
2016-11-10T08:41:26.527Z,65
2016-11-10T08:42:27.155Z,65
2016-11-10T08:43:27.776Z,65
2016-11-10T08:44:28.417Z,65
2016-11-10T08:45:29.033Z,65
2016-11-10T08:46:29.655Z,70
2016-11-10T08:47:30.268Z,70
2016-11-10T08:48:30.894Z,70
2016-11-10T08:49:31.547Z,70
2016-11-10T08:50:32.165Z,65
2016-11-10T08:51:32.845Z,65
2016-11-10T08:52:33.475Z,65
2016-11-10T08:53:34.102Z,65
2016-11-10T08:54:34.916Z,65
2016-11-10T08:55:35.535Z,70
2016-11-10T08:56:36.174Z,70
2016-11-10T08:57:36.781Z,65
2016-11-10T08:58:37.456Z,65
2016-11-10T08:59:38.087Z,65
2016-11-10T09:00:38.697Z,60
2016-11-10T09:01:39.301Z,60
2016-11-10T09:02:39.909Z,65
2016-11-10T09:03:40.527Z,70
2016-11-10T09:04:41.182Z,80
2016-11-10T09:05:41.795Z,85
2016-11-10T09:06:42.406Z,90
2016-11-10T09:07:43.098Z,90
2016-11-10T09:08:43.819Z,80
2016-11-10T09:09:44.431Z,85
2016-11-10T09:10:45.060Z,80
2016-11-10T09:11:45.671Z,75
2016-11-10T09:12:46.281Z,75
2016-11-10T09:13:46.896Z,85
2016-11-10T09:14:47.504Z,85
2016-11-10T09:15:48.126Z,80
2016-11-10T09:16:48.739Z,75
2016-11-10T09:17:49.355Z,70
2016-11-10T09:18:50.123Z,65
2016-11-10T09:19:50.729Z,60
2016-11-10T09:20:51.341Z,60
2016-11-10T09:21:51.952Z,50
2016-11-10T09:22:52.564Z,55
2016-11-10T09:23:53.172Z,55
2016-11-10T09:24:53.807Z,50
2016-11-10T09:25:54.424Z,60
2016-11-10T09:26:55.053Z,70
2016-11-10T09:27:55.687Z,75
2016-11-10T09:28:56.305Z,85
2016-11-10T09:29:56.966Z,100
2016-11-10T09:30:57.570Z,95
2016-11-10T09:31:58.186Z,100
2016-11-10T09:32:58.805Z,95
2016-11-10T09:33:59.476Z,80
2016-11-10T09:35:00.087Z,75
2016-11-10T09:36:00.704Z,65
2016-11-10T09:37:01.323Z,65
2016-11-10T09:38:01.930Z,65
2016-11-10T09:39:02.552Z,65
2016-11-10T09:40:03.179Z,65
2016-11-10T09:41:03.790Z,60
2016-11-10T09:42:04.403Z,65
2016-11-10T09:43:05.016Z,60
2016-11-10T09:44:05.641Z,60
2016-11-10T09:45:06.262Z,50
2016-11-10T09:46:06.885Z,45
2016-11-10T09:47:07.501Z,55
2016-11-10T09:48:08.107Z,50
2016-11-10T09:49:08.725Z,55
2016-11-10T09:50:09.329Z,55
2016-11-10T09:51:09.954Z,55
2016-11-10T09:52:10.567Z,60
2016-11-10T09:53:11.187Z,55
2016-11-10T09:54:11.808Z,60
2016-11-10T09:55:12.430Z,65
2016-11-10T09:56:13.044Z,65
2016-11-10T09:57:13.653Z,65
2016-11-10T09:58:14.259Z,65
2016-11-10T09:59:14.868Z,60
2016-11-10T10:00:15.479Z,60
2016-11-10T10:01:16.090Z,55
2016-11-10T10:02:16.708Z,55
2016-11-10T10:03:17.309Z,55
2016-11-10T10:04:17.930Z,60
2016-11-10T10:05:18.542Z,65
2016-11-10T10:06:19.149Z,70
2016-11-10T10:07:19.755Z,75
2016-11-10T10:08:20.366Z,75
2016-11-10T10:09:20.977Z,85
2016-11-10T10:10:21.610Z,90
2016-11-10T10:11:22.224Z,95
2016-11-10T10:12:22.845Z,95
2016-11-10T10:13:23.493Z,100
2016-11-10T10:14:24.103Z,95
2016-11-10T10:15:24.718Z,100
2016-11-10T10:16:25.353Z,100
2016-11-10T10:17:25.979Z,100
2016-11-10T10:18:26.595Z,105
2016-11-10T10:19:27.211Z,105
2016-11-10T10:20:27.829Z,95
2016-11-10T10:21:28.452Z,85
2016-11-10T10:22:29.060Z,90
2016-11-10T10:23:29.686Z,85
2016-11-10T10:24:30.305Z,80
2016-11-10T10:25:30.908Z,80
2016-11-10T10:26:31.512Z,85
2016-11-10T10:27:32.123Z,90
2016-11-10T10:28:32.740Z,90
2016-11-10T10:29:33.423Z,90
2016-11-10T10:30:34.152Z,90
2016-11-10T10:31:34.757Z,95
2016-11-10T10:32:35.366Z,95
2016-11-10T10:33:35.989Z,95
2016-11-10T10:34:36.611Z,95
2016-11-10T10:35:37.220Z,95
2016-11-10T10:36:37.833Z,90
2016-11-10T10:37:38.444Z,90
2016-11-10T10:38:39.068Z,90
2016-11-10T10:39:39.789Z,95
2016-11-10T10:40:40.342Z,90
2016-11-10T10:41:41.067Z,90
2016-11-10T10:42:41.787Z,100
2016-11-10T10:43:42.424Z,100
2016-11-10T10:44:43.137Z,105
2016-11-10T10:45:43.756Z,105
2016-11-10T10:46:44.377Z,105
2016-11-10T10:47:45.219Z,110
2016-11-10T10:48:45.618Z,110
2016-11-10T10:49:46.335Z,110
2016-11-10T10:50:47.001Z,105
2016-11-10T10:51:47.639Z,105
2016-11-10T10:52:48.267Z,105
2016-11-10T10:53:48.892Z,105
2016-11-10T10:54:49.513Z,105
2016-11-10T10:55:50.126Z,105
2016-11-10T10:56:50.729Z,105
2016-11-10T10:57:51.340Z,100
2016-11-10T10:58:51.989Z,100
2016-11-10T10:59:52.611Z,100
2016-11-10T11:00:53.227Z,105
2016-11-10T11:01:53.854Z,105
2016-11-10T11:02:54.476Z,110
2016-11-10T11:03:55.087Z,115
2016-11-10T11:04:55.720Z,115
2016-11-10T11:05:56.337Z,120
2016-11-10T11:06:57.010Z,125
2016-11-10T11:07:57.632Z,120
2016-11-10T11:08:58.247Z,125
2016-11-10T11:09:58.875Z,125
2016-11-10T11:10:59.492Z,120
2016-11-10T11:12:00.124Z,115
2016-11-10T11:13:00.721Z,105
2016-11-10T11:14:01.328Z,105
2016-11-10T11:15:01.939Z,100
2016-11-10T11:16:02.538Z,90
2016-11-10T11:17:03.149Z,90
2016-11-10T11:18:03.761Z,85
2016-11-10T11:19:04.403Z,85
2016-11-10T11:20:05.025Z,80
2016-11-10T11:21:05.659Z,80
2016-11-10T11:22:06.279Z,80
2016-11-10T11:23:06.897Z,85
2016-11-10T11:24:07.513Z,85
2016-11-10T11:25:08.128Z,85
2016-11-10T11:26:08.738Z,85
2016-11-10T11:27:09.357Z,90
2016-11-10T11:28:09.967Z,90
2016-11-10T11:29:10.593Z,95
2016-11-10T11:30:11.206Z,95
2016-11-10T11:31:11.815Z,95
2016-11-10T11:32:12.450Z,100
2016-11-10T11:33:13.124Z,100
2016-11-10T11:34:13.735Z,100
2016-11-10T11:35:14.357Z,100
2016-11-10T11:36:14.973Z,95
2016-11-10T11:37:15.600Z,95
2016-11-10T11:38:16.329Z,90
2016-11-10T11:39:16.975Z,90
2016-11-10T11:40:17.611Z,90
2016-11-10T11:41:18.250Z,90
2016-11-10T11:42:18.871Z,90
2016-11-10T11:43:19.490Z,90
2016-11-10T11:44:20.121Z,90
2016-11-10T11:45:20.773Z,90
2016-11-10T11:46:21.457Z,90
2016-11-10T11:47:22.232Z,90
2016-11-10T11:48:22.913Z,85
2016-11-10T11:49:23.539Z,85
2016-11-10T11:50:24.235Z,80
2016-11-10T11:51:24.868Z,75
2016-11-10T11:52:25.500Z,75
2016-11-10T11:53:26.111Z,75
2016-11-10T11:54:26.750Z,75
2016-11-10T11:55:27.369Z,75
2016-11-10T11:56:28.074Z,75
2016-11-10T11:57:28.757Z,80
2016-11-10T11:58:29.418Z,80
2016-11-10T11:59:30.039Z,80
2016-11-10T12:00:30.660Z,80
2016-11-10T12:01:31.276Z,80
2016-11-10T12:02:31.902Z,80
2016-11-10T12:03:32.523Z,80
2016-11-10T12:04:33.232Z,85
2016-11-10T12:05:33.847Z,85
2016-11-10T12:06:34.472Z,85
2016-11-10T12:07:35.187Z,90
2016-11-10T12:08:35.781Z,90
2016-11-10T12:09:36.396Z,90
2016-11-10T12:10:37.015Z,95
2016-11-10T12:11:37.670Z,95
2016-11-10T12:12:38.264Z,95
2016-11-10T12:13:38.884Z,95
2016-11-10T12:14:39.500Z,95
2016-11-10T12:15:40.128Z,95
2016-11-10T12:16:40.870Z,95
2016-11-10T12:17:41.488Z,95
2016-11-10T12:18:42.090Z,95
2016-11-10T12:19:42.713Z,95
2016-11-10T12:20:43.321Z,95
2016-11-10T12:21:43.934Z,100
2016-11-10T12:22:44.562Z,100
2016-11-10T12:23:45.193Z,95
2016-11-10T12:24:45.826Z,100
2016-11-10T12:25:46.431Z,100
2016-11-10T12:26:47.058Z,105
2016-11-10T12:27:47.681Z,105
2016-11-10T12:28:48.300Z,95
2016-11-10T12:29:48.918Z,100
2016-11-10T12:30:49.535Z,100
2016-11-10T12:31:50.162Z,100
2016-11-10T12:32:50.809Z,100
2016-11-10T12:33:51.448Z,100
2016-11-10T12:34:52.089Z,100
2016-11-10T12:35:52.689Z,95
2016-11-10T12:36:53.308Z,100
2016-11-10T12:37:53.932Z,105
2016-11-10T12:38:54.569Z,105
2016-11-10T12:39:55.192Z,110
2016-11-10T12:40:55.794Z,105
2016-11-10T12:41:56.410Z,100
2016-11-10T12:42:57.036Z,105
2016-11-10T12:43:57.662Z,100
2016-11-10T12:44:58.283Z,100
2016-11-10T12:45:58.903Z,100
2016-11-10T12:46:59.521Z,100
2016-11-10T12:48:00.152Z,100
2016-11-10T12:49:00.765Z,105
2016-11-10T12:50:01.374Z,100
2016-11-10T12:51:02.000Z,95
2016-11-10T12:52:02.627Z,95
2016-11-10T12:53:03.244Z,90
2016-11-10T12:54:03.858Z,90
2016-11-10T12:55:04.469Z,90
2016-11-10T12:56:05.101Z,85
2016-11-10T12:57:05.709Z,85
2016-11-10T12:58:06.320Z,90
2016-11-10T12:59:06.933Z,95
2016-11-10T13:00:07.555Z,90
2016-11-10T13:01:08.173Z,90
2016-11-10T13:02:08.787Z,90
2016-11-10T13:03:09.405Z,85
2016-11-10T13:04:10.018Z,85
2016-11-10T13:05:10.641Z,85
2016-11-10T13:06:11.248Z,80
2016-11-10T13:07:11.852Z,80
2016-11-10T13:08:12.460Z,80
2016-11-10T13:09:13.065Z,80
2016-11-10T13:10:13.672Z,80
2016-11-10T13:11:14.283Z,75
2016-11-10T13:12:14.940Z,75
2016-11-10T13:13:15.549Z,75
2016-11-10T13:14:16.185Z,70
2016-11-10T13:15:16.809Z,70
2016-11-10T13:16:17.437Z,70
2016-11-10T13:17:18.070Z,70
2016-11-10T13:18:18.690Z,75
2016-11-10T13:19:19.365Z,75
2016-11-10T13:20:19.976Z,75
2016-11-10T13:21:20.604Z,70
2016-11-10T13:22:21.229Z,65
2016-11-10T13:23:21.854Z,65
2016-11-10T13:24:22.472Z,65
2016-11-10T13:25:23.130Z,70
2016-11-10T13:26:23.751Z,70
2016-11-10T13:27:24.363Z,70
2016-11-10T13:28:24.975Z,70
2016-11-10T13:29:25.596Z,70
2016-11-10T13:30:26.214Z,65
2016-11-10T13:31:26.849Z,65
2016-11-10T13:32:27.493Z,65
2016-11-10T13:33:28.121Z,60
2016-11-10T13:34:28.787Z,60
2016-11-10T13:35:29.431Z,60
2016-11-10T13:36:30.049Z,55
2016-11-10T13:37:30.658Z,60
2016-11-10T13:38:31.275Z,60
2016-11-10T13:39:31.897Z,60
2016-11-10T13:40:32.503Z,60
2016-11-10T13:41:33.159Z,60
2016-11-10T13:42:33.849Z,60
2016-11-10T13:43:34.565Z,60
2016-11-10T13:44:35.186Z,60
2016-11-10T13:45:35.920Z,55
2016-11-10T13:46:36.670Z,50
2016-11-10T13:47:37.281Z,45
2016-11-10T13:48:37.899Z,45
2016-11-10T13:49:38.511Z,45
2016-11-10T13:50:39.168Z,45
2016-11-10T13:51:39.815Z,40
2016-11-10T13:52:40.471Z,40
2016-11-10T13:53:41.137Z,35
2016-11-10T13:54:41.802Z,35
2016-11-10T13:55:42.452Z,35
2016-11-10T13:56:43.075Z,35
2016-11-10T13:57:43.727Z,35
2016-11-10T13:58:44.424Z,35
2016-11-10T13:59:45.058Z,30
2016-11-10T14:00:45.701Z,30
2016-11-10T14:01:46.332Z,30
2016-11-10T14:02:47.125Z,30
2016-11-10T14:03:47.747Z,30
2016-11-10T14:04:48.421Z,30
2016-11-10T14:05:49.054Z,30
2016-11-10T14:06:49.686Z,30
2016-11-10T14:07:50.308Z,25
2016-11-10T14:08:50.931Z,25
2016-11-10T14:09:51.555Z,25
2016-11-10T14:10:52.181Z,20
2016-11-10T14:11:52.843Z,20
2016-11-10T14:12:53.541Z,20
2016-11-10T14:13:54.151Z,20
2016-11-10T14:14:54.807Z,20
2016-11-10T14:15:55.469Z,20
2016-11-10T14:16:56.131Z,20
2016-11-10T14:17:56.765Z,20
2016-11-10T14:18:57.494Z,20
2016-11-10T14:19:58.121Z,20
2016-11-10T14:20:58.782Z,20
2016-11-10T14:21:59.430Z,20
2016-11-10T14:23:00.076Z,20
2016-11-10T14:24:00.707Z,20
2016-11-10T14:25:01.335Z,20
2016-11-10T14:26:01.960Z,20
2016-11-10T14:27:02.617Z,20
2016-11-10T14:28:03.268Z,20
2016-11-10T14:29:03.937Z,20
2016-11-10T14:30:04.591Z,20
2016-11-10T14:31:05.211Z,20
2016-11-10T14:32:05.855Z,20
2016-11-10T14:33:06.536Z,20
2016-11-10T14:34:07.207Z,25
2016-11-10T14:35:07.846Z,20
2016-11-10T14:36:08.509Z,20
2016-11-10T14:37:09.188Z,20